Time;durP1;ratioP1;P1;durP2;ratioP2;P2;SDS_P1;SDS_P2;PMS_P1;PMS_P2;Temp;Humidity;BMP_temperature;BMP_pressure;BME280_temperature;BME280_humidity;BME280_pressure;Samples;Min_cycle;Max_cycle;Signal;HPM_P1;HPM_P2
2021/11/03 00:02:05;;;;;;;13.83;11.37;;;6.90;99.90;;;;;;5023965;28;20639;-66
2021/11/03 00:04:32;;;;;;;13.40;12.00;;;6.90;99.90;;;;;;5024840;28;20665;-67
2021/11/03 00:06:57;;;;;;;13.13;11.20;;;6.90;99.90;;;;;;5026996;28;20615;-66
2021/11/03 00:09:23;;;;;;;13.20;11.80;;;6.90;99.90;;;;;;5023714;28;20709;-68
2021/11/03 00:11:49;;;;;;;15.97;11.50;;;6.90;99.90;;;;;;5021754;28;20221;-67
2021/11/03 00:14:17;;;;;;;14.63;11.80;;;7.00;99.90;;;;;;5024354;28;20213;-66
2021/11/03 00:16:45;;;;;;;16.47;11.33;;;6.90;99.90;;;;;;5022445;28;20209;-67
2021/11/03 00:19:11;;;;;;;13.23;11.63;;;6.90;99.90;;;;;;5023999;28;20730;-66
2021/11/03 00:21:44;;;;;;;13.23;11.40;;;7.00;99.90;;;;;;5023352;28;20763;-68
2021/11/03 00:24:09;;;;;;;15.83;12.23;;;6.90;99.90;;;;;;5023928;28;20200;-68
2021/11/03 00:26:37;;;;;;;17.20;12.50;;;6.90;99.90;;;;;;5022302;28;20980;-66
2021/11/03 00:29:05;;;;;;;15.20;12.17;;;6.90;99.90;;;;;;5022426;28;20192;-67
2021/11/03 00:31:31;;;;;;;13.50;10.90;;;6.90;99.90;;;;;;5022896;28;20654;-68
2021/11/03 00:33:57;;;;;;;15.10;11.83;;;6.90;99.90;;;;;;5023752;28;20655;-67
2021/11/03 00:36:23;;;;;;;12.50;11.20;;;6.90;99.90;;;;;;5022243;28;20519;-67
2021/11/03 00:38:49;;;;;;;15.50;11.70;;;7.00;99.90;;;;;;5024289;28;21093;-67
2021/11/03 00:41:14;;;;;;;13.80;12.33;;;6.90;99.90;;;;;;5023705;28;20307;-67
2021/11/03 00:43:45;;;;;;;17.03;12.97;;;6.90;99.90;;;;;;5023357;28;20660;-68
2021/11/03 00:46:13;;;;;;;13.97;12.00;;;6.90;99.90;;;;;;5022866;28;20779;-67
2021/11/03 00:48:41;;;;;;;14.03;12.53;;;6.90;99.90;;;;;;5023632;28;21073;-67
2021/11/03 00:51:09;;;;;;;17.40;13.53;;;7.00;99.90;;;;;;5006226;28;20646;-67
2021/11/03 00:53:40;;;;;;;14.27;12.10;;;7.00;99.90;;;;;;5026124;28;20643;-67
2021/11/03 00:56:10;;;;;;;15.30;12.33;;;7.00;99.90;;;;;;5019490;28;20647;-67
2021/11/03 00:58:38;;;;;;;14.50;11.97;;;7.10;99.90;;;;;;5022256;28;22071;-67
2021/11/03 01:01:03;;;;;;;16.93;13.20;;;7.00;99.90;;;;;;5020244;28;20620;-67
2021/11/03 01:03:32;;;;;;;17.53;12.70;;;6.80;99.90;;;;;;5013794;28;20670;-68
2021/11/03 01:05:57;;;;;;;20.07;14.10;;;7.10;99.90;;;;;;5023750;28;20193;-68
2021/11/03 01:08:23;;;;;;;17.30;13.40;;;7.20;99.90;;;;;;5021952;28;20611;-66
2021/11/03 01:10:53;;;;;;;17.40;14.10;;;7.20;99.90;;;;;;5020032;28;20224;-66
2021/11/03 01:13:20;;;;;;;17.63;13.50;;;7.30;99.90;;;;;;5021454;28;20216;-66
2021/11/03 01:15:49;;;;;;;19.00;14.20;;;7.30;99.90;;;;;;5019959;28;20611;-66
2021/11/03 01:18:15;;;;;;;20.83;14.53;;;7.40;99.90;;;;;;5023583;28;20626;-67
2021/11/03 01:20:41;;;;;;;23.03;15.23;;;7.40;99.90;;;;;;5020806;28;21183;-67
2021/11/03 01:23:09;;;;;;;22.30;13.80;;;7.40;99.90;;;;;;5021105;28;20730;-67
2021/11/03 01:25:40;;;;;;;20.60;14.00;;;7.50;99.90;;;;;;5000519;28;20809;-67
2021/11/03 01:28:09;;;;;;;21.13;14.47;;;7.50;99.90;;;;;;5024571;28;20568;-67
2021/11/03 01:30:37;;;;;;;18.07;14.27;;;7.50;99.90;;;;;;5021727;28;21265;-72
2021/11/03 01:33:04;;;;;;;21.63;14.17;;;7.50;99.90;;;;;;5023334;28;20629;-69
2021/11/03 01:35:30;;;;;;;19.10;15.13;;;7.60;99.90;;;;;;5022861;28;20622;-68
2021/11/03 01:38:01;;;;;;;19.10;13.43;;;7.60;99.90;;;;;;5021644;28;20673;-66
2021/11/03 01:40:30;;;;;;;15.97;12.77;;;7.60;99.90;;;;;;5023425;28;20738;-68
2021/11/03 01:42:58;;;;;;;15.67;13.40;;;7.60;99.90;;;;;;5024057;28;20651;-67
2021/11/03 01:45:26;;;;;;;17.23;13.83;;;7.60;99.90;;;;;;5022477;28;20644;-66
2021/11/03 01:47:58;;;;;;;20.17;14.37;;;7.60;99.90;;;;;;5025673;28;20636;-67
2021/11/03 01:50:49;;;;;;;18.53;14.20;;;7.70;99.90;;;;;;5024308;28;20639;-69
2021/11/03 01:53:27;;;;;;;15.17;12.53;;;7.70;99.90;;;;;;5022950;28;20654;-66
2021/11/03 01:56:06;;;;;;;18.10;14.03;;;7.70;99.90;;;;;;5024497;28;20599;-67
2021/11/03 01:58:50;;;;;;;19.87;14.10;;;7.80;99.90;;;;;;5018841;28;20655;-66
2021/11/03 02:01:16;;;;;;;15.70;12.30;;;7.80;99.90;;;;;;5022970;28;20997;-68
2021/11/03 02:03:43;;;;;;;19.73;13.37;;;7.80;99.90;;;;;;5005966;28;20708;-69
2021/11/03 02:06:18;;;;;;;18.23;13.73;;;7.80;99.90;;;;;;5023713;28;20711;-66
2021/11/03 02:08:51;;;;;;;18.57;13.67;;;7.90;99.90;;;;;;5023193;28;20630;-67
2021/11/03 02:11:26;;;;;;;19.00;13.00;;;7.90;99.90;;;;;;5005478;28;20668;-66
2021/11/03 02:13:52;;;;;;;16.70;13.83;;;7.90;99.90;;;;;;5022207;28;20722;-68
2021/11/03 02:16:22;;;;;;;21.30;14.13;;;8.00;99.90;;;;;;5019709;28;20923;-68
2021/11/03 02:18:57;;;;;;;16.60;13.60;;;8.00;99.90;;;;;;5020738;28;20972;-68
2021/11/03 02:21:38;;;;;;;17.83;14.00;;;8.00;99.90;;;;;;5018584;28;21264;-68
2021/11/03 02:24:19;;;;;;;19.30;13.43;;;8.00;99.90;;;;;;5019433;28;20644;-68
2021/11/03 02:26:49;;;;;;;16.83;13.60;;;8.10;99.90;;;;;;5022490;28;20665;-68
2021/11/03 02:29:19;;;;;;;17.03;14.33;;;8.10;99.90;;;;;;5017841;28;20669;-68
2021/11/03 02:31:52;;;;;;;17.00;13.30;;;8.10;99.90;;;;;;5018812;28;20632;-68
2021/11/03 02:34:30;;;;;;;16.50;13.40;;;8.10;99.90;;;;;;5020640;28;20638;-68
2021/11/03 02:37:24;;;;;;;14.80;12.50;;;8.20;99.90;;;;;;4998783;28;20727;-68
2021/11/03 02:40:23;;;;;;;16.20;13.23;;;8.20;99.90;;;;;;5010416;28;20744;-68
2021/11/03 02:42:55;;;;;;;14.10;12.50;;;8.20;99.90;;;;;;5018793;28;20668;-68
2021/11/03 02:45:39;;;;;;;16.83;12.37;;;8.40;99.90;;;;;;5026176;28;21138;-68
2021/11/03 02:48:07;;;;;;;16.33;12.03;;;8.10;99.90;;;;;;5023190;28;20614;-67
2021/11/03 02:50:41;;;;;;;16.43;13.53;;;8.20;99.90;;;;;;5024894;28;21093;-67
2021/11/03 02:53:09;;;;;;;15.90;13.00;;;8.20;99.90;;;;;;5025753;28;20763;-67
2021/11/03 02:55:35;;;;;;;17.77;13.70;;;8.30;99.90;;;;;;5027496;28;20638;-67
2021/11/03 02:58:02;;;;;;;15.60;12.80;;;8.20;99.90;;;;;;5025116;28;20654;-67
2021/11/03 03:00:28;;;;;;;16.00;12.70;;;8.30;99.90;;;;;;5024709;28;20235;-67
2021/11/03 03:02:53;;;;;;;15.50;12.13;;;8.30;99.90;;;;;;5025625;28;20836;-68
2021/11/03 03:05:20;;;;;;;18.63;12.47;;;8.30;99.90;;;;;;5026069;28;20673;-66
2021/11/03 03:07:55;;;;;;;16.40;12.80;;;8.30;99.90;;;;;;5025544;28;20257;-66
2021/11/03 03:10:20;;;;;;;17.90;12.30;;;8.30;99.90;;;;;;5024835;28;21085;-67
2021/11/03 03:12:46;;;;;;;14.60;11.70;;;8.40;99.90;;;;;;5027948;28;20631;-68
2021/11/03 03:15:14;;;;;;;14.63;12.47;;;8.40;99.90;;;;;;5026662;28;20340;-67
2021/11/03 03:17:40;;;;;;;15.80;12.40;;;8.40;99.90;;;;;;5028275;28;20213;-67
2021/11/03 03:20:10;;;;;;;15.00;11.60;;;8.40;99.90;;;;;;5025242;28;20611;-66
2021/11/03 03:22:35;;;;;;;16.87;12.93;;;8.40;99.90;;;;;;5027626;28;20212;-68
2021/11/03 03:25:01;;;;;;;15.10;12.30;;;8.40;99.90;;;;;;5026203;28;20620;-68
2021/11/03 03:27:37;;;;;;;;;;;;;;;;;;;;;
2021/11/03 03:30:12;;;;;;;14.20;11.77;;;8.40;99.90;;;;;;5022246;28;20639;-66
2021/11/03 03:32:40;;;;;;;12.97;11.20;;;8.40;99.90;;;;;;5025336;28;20729;-67
2021/11/03 03:35:08;;;;;;;14.63;11.70;;;8.50;99.90;;;;;;5024547;28;20634;-67
2021/11/03 03:37:34;;;;;;;13.43;11.60;;;8.50;99.90;;;;;;5006222;28;20651;-67
2021/11/03 03:40:00;;;;;;;13.70;11.40;;;8.50;99.90;;;;;;5024432;28;20618;-67
2021/11/03 03:42:26;;;;;;;14.20;11.30;;;8.50;99.90;;;;;;5021224;28;20274;-67
2021/11/03 03:44:59;;;;;;;13.30;11.00;;;8.50;99.90;;;;;;5022975;28;20607;-67
2021/11/03 03:47:35;;;;;;;13.70;10.90;;;8.50;99.90;;;;;;5022131;28;20824;-67
2021/11/03 03:50:00;;;;;;;14.80;11.60;;;8.50;99.90;;;;;;5022313;28;20622;-69
2021/11/03 03:52:29;;;;;;;14.90;10.50;;;8.60;99.90;;;;;;5026248;28;20643;-67
2021/11/03 03:54:57;;;;;;;15.07;11.50;;;8.60;99.90;;;;;;5026802;28;20185;-68
2021/11/03 03:57:22;;;;;;;14.33;12.53;;;8.60;99.90;;;;;;5024755;28;21379;-67
2021/11/03 03:59:50;;;;;;;14.07;11.30;;;8.60;99.90;;;;;;5023687;28;20631;-67
2021/11/03 04:02:16;;;;;;;13.50;10.20;;;8.60;99.90;;;;;;5024029;28;20217;-66
2021/11/03 04:04:44;;;;;;;14.63;11.83;;;8.50;99.90;;;;;;5024519;28;20621;-68
2021/11/03 04:07:13;;;;;;;13.33;10.20;;;8.50;99.90;;;;;;5023214;28;20199;-67
2021/11/03 04:09:39;;;;;;;14.30;11.03;;;8.50;99.90;;;;;;5022284;28;20639;-66
2021/11/03 04:12:05;;;;;;;13.43;11.07;;;8.50;99.90;;;;;;5013128;28;20640;-67
2021/11/03 04:14:30;;;;;;;14.30;10.67;;;8.50;99.90;;;;;;5025595;28;20196;-65
2021/11/03 04:16:58;;;;;;;13.83;10.57;;;8.50;99.90;;;;;;5022953;28;20658;-67
2021/11/03 04:19:26;;;;;;;13.50;11.87;;;8.50;99.90;;;;;;5023871;28;20231;-66
2021/11/03 04:21:57;;;;;;;12.53;10.47;;;8.50;99.90;;;;;;5024035;28;21090;-67
2021/11/03 04:24:26;;;;;;;12.93;11.10;;;8.50;99.90;;;;;;5026683;28;20726;-67
2021/11/03 04:26:54;;;;;;;14.00;10.53;;;8.50;99.90;;;;;;5025001;28;20615;-68
2021/11/03 04:29:26;;;;;;;11.57;9.73;;;8.50;99.90;;;;;;5021706;28;20683;-68
2021/11/03 04:31:52;;;;;;;13.17;10.90;;;8.50;99.90;;;;;;5023559;28;21202;-68
2021/11/03 04:34:20;;;;;;;13.97;10.30;;;8.50;99.90;;;;;;5021859;28;20645;-68
2021/11/03 04:36:47;;;;;;;14.37;10.87;;;8.60;99.90;;;;;;5020500;28;20725;-68
2021/11/03 04:39:15;;;;;;;13.33;11.00;;;8.50;99.90;;;;;;5021514;28;20688;-68
2021/11/03 04:41:40;;;;;;;10.80;9.60;;;8.50;99.90;;;;;;5021007;28;20683;-68
2021/11/03 04:44:15;;;;;;;12.17;10.20;;;8.50;99.90;;;;;;5016262;28;20742;-67
2021/11/03 04:46:43;;;;;;;14.30;11.00;;;8.50;99.90;;;;;;5020475;28;20272;-67
2021/11/03 04:49:14;;;;;;;13.30;9.80;;;8.50;99.90;;;;;;5026014;28;20982;-69
2021/11/03 04:51:40;;;;;;;11.53;10.07;;;8.50;99.90;;;;;;5019862;28;20651;-68
2021/11/03 04:54:06;;;;;;;13.73;10.10;;;8.50;99.90;;;;;;5025781;28;20669;-68
2021/11/03 04:56:33;;;;;;;13.30;10.70;;;8.50;99.90;;;;;;5023011;28;20227;-68
2021/11/03 04:59:02;;;;;;;12.40;10.90;;;8.50;99.90;;;;;;4999974;28;20280;-68
2021/11/03 05:01:28;;;;;;;11.23;9.97;;;8.50;99.90;;;;;;5019885;28;20770;-67
2021/11/03 05:04:04;;;;;;;12.13;9.80;;;8.50;99.90;;;;;;5025067;28;20776;-68
2021/11/03 05:06:37;;;;;;;12.40;9.67;;;8.50;99.90;;;;;;5016916;28;20314;-67
2021/11/03 05:09:05;;;;;;;13.20;9.53;;;8.60;99.90;;;;;;5023615;28;20710;-67
2021/11/03 05:11:31;;;;;;;11.77;9.50;;;8.60;99.90;;;;;;5023033;28;21198;-67
2021/11/03 05:13:59;;;;;;;12.27;9.80;;;8.60;99.90;;;;;;5024327;28;20627;-68
2021/11/03 05:16:29;;;;;;;15.80;10.90;;;8.50;99.90;;;;;;5009657;28;20616;-68
2021/11/03 05:18:55;;;;;;;15.67;11.07;;;8.50;99.90;;;;;;5023492;28;21241;-67
2021/11/03 05:21:28;;;;;;;14.00;11.07;;;8.50;99.90;;;;;;5022547;28;20643;-67
2021/11/03 05:23:56;;;;;;;13.17;10.20;;;8.60;99.90;;;;;;5025702;28;20671;-67
2021/11/03 05:26:27;;;;;;;12.07;10.33;;;8.50;99.90;;;;;;5016904;28;20619;-66
2021/11/03 05:28:58;;;;;;;12.53;10.27;;;8.50;99.90;;;;;;5018003;28;21027;-68
2021/11/03 05:31:28;;;;;;;14.00;10.90;;;8.50;99.90;;;;;;5015817;28;20659;-67
2021/11/03 05:33:54;;;;;;;12.10;10.27;;;8.50;99.90;;;;;;5020028;28;20682;-66
2021/11/03 05:36:26;;;;;;;14.20;9.77;;;8.50;99.90;;;;;;5022954;28;20678;-69
2021/11/03 05:38:52;;;;;;;13.43;10.97;;;8.50;99.90;;;;;;5022653;28;20611;-68
2021/11/03 05:41:23;;;;;;;11.37;10.17;;;8.60;99.90;;;;;;5021866;28;20642;-67
2021/11/03 05:43:51;;;;;;;13.50;10.40;;;8.60;99.90;;;;;;5023877;28;20762;-66
2021/11/03 05:46:31;;;;;;;12.53;10.50;;;8.50;99.90;;;;;;5022527;28;20715;-67
2021/11/03 05:49:03;;;;;;;12.50;10.70;;;8.50;99.90;;;;;;5023253;28;20607;-68
2021/11/03 05:51:28;;;;;;;15.03;11.67;;;8.50;99.90;;;;;;5021367;28;20628;-67
2021/11/03 05:53:54;;;;;;;12.70;10.93;;;8.50;99.90;;;;;;5014459;28;20662;-67
2021/11/03 05:56:25;;;;;;;11.93;10.60;;;8.50;99.90;;;;;;5016841;28;20217;-67
2021/11/03 05:58:59;;;;;;;12.13;10.83;;;8.50;99.90;;;;;;5016976;28;20895;-68
2021/11/03 06:01:24;;;;;;;14.83;10.83;;;8.50;99.90;;;;;;5016862;28;20682;-67
2021/11/03 06:03:53;;;;;;;15.50;10.50;;;8.50;99.90;;;;;;5010699;28;20701;-68
2021/11/03 06:06:21;;;;;;;14.50;10.87;;;8.50;99.90;;;;;;5018975;28;20184;-67
2021/11/03 06:08:48;;;;;;;14.50;10.83;;;8.50;99.90;;;;;;5017980;28;20611;-69
2021/11/03 06:11:18;;;;;;;12.80;10.00;;;8.50;99.90;;;;;;5018272;28;21198;-66
2021/11/03 06:13:44;;;;;;;12.80;10.97;;;8.50;99.90;;;;;;5018181;28;20647;-69
2021/11/03 06:16:10;;;;;;;12.97;10.93;;;8.50;99.90;;;;;;5024843;28;21001;-67
2021/11/03 06:18:39;;;;;;;15.20;11.97;;;8.40;99.90;;;;;;5023700;28;20215;-67
2021/11/03 06:21:05;;;;;;;13.30;11.70;;;8.40;99.90;;;;;;5025596;28;20643;-68
2021/11/03 06:23:31;;;;;;;12.97;10.70;;;8.40;99.90;;;;;;5026015;28;20646;-67
2021/11/03 06:25:57;;;;;;;12.37;11.07;;;8.40;99.90;;;;;;5023660;28;20686;-67
2021/11/03 06:28:23;;;;;;;13.60;11.63;;;8.40;99.90;;;;;;5027677;28;20189;-67
2021/11/03 06:30:49;;;;;;;14.30;11.13;;;8.40;99.90;;;;;;5023158;28;20992;-67
2021/11/03 06:33:18;;;;;;;13.13;11.50;;;8.30;99.90;;;;;;5027075;28;21073;-68
2021/11/03 06:35:53;;;;;;;13.40;10.80;;;8.30;99.90;;;;;;5026269;28;20679;-68
2021/11/03 06:38:19;;;;;;;13.10;10.83;;;8.30;99.90;;;;;;5025764;28;20651;-68
2021/11/03 06:40:56;;;;;;;16.10;12.00;;;8.30;99.90;;;;;;5020625;28;20768;-69
2021/11/03 06:43:26;;;;;;;12.70;10.83;;;8.30;99.90;;;;;;5027034;28;20200;-69
2021/11/03 06:45:52;;;;;;;14.83;10.70;;;8.20;99.90;;;;;;5030000;28;20661;-69
2021/11/03 06:48:31;;;;;;;16.10;11.63;;;8.20;99.90;;;;;;5030555;28;20899;-69
2021/11/03 06:50:59;;;;;;;16.60;12.50;;;8.20;99.90;;;;;;5029697;28;20638;-69
2021/11/03 06:53:28;;;;;;;15.10;12.20;;;8.20;99.90;;;;;;5030488;28;20686;-67
2021/11/03 06:56:14;;;;;;;15.07;11.67;;;8.30;99.90;;;;;;5025938;28;20631;-68
2021/11/03 06:58:39;;;;;;;13.83;10.70;;;8.30;99.90;;;;;;5031753;28;20586;-68
2021/11/03 07:01:18;;;;;;;;;;;;;;;;;;;;;
2021/11/03 07:03:45;;;;;;;15.90;12.40;;;8.30;99.90;;;;;;5029523;28;20204;-67
2021/11/03 07:06:29;;;;;;;15.80;12.03;;;8.30;99.90;;;;;;5032081;28;20615;-68
2021/11/03 07:09:13;;;;;;;17.43;12.63;;;8.30;99.90;;;;;;5030200;28;20583;-68
2021/11/03 07:11:38;;;;;;;14.60;11.27;;;8.30;99.90;;;;;;5029432;28;20638;-67
2021/11/03 07:14:04;;;;;;;16.63;11.77;;;8.30;99.90;;;;;;5031205;28;20640;-68
2021/11/03 07:16:30;;;;;;;17.30;12.73;;;8.30;99.90;;;;;;5032206;28;20574;-67
2021/11/03 07:19:00;;;;;;;15.83;13.07;;;8.30;99.90;;;;;;5032131;28;20263;-67
2021/11/03 07:21:26;;;;;;;16.70;12.40;;;8.30;99.90;;;;;;5011329;28;20219;-68
2021/11/03 07:23:54;;;;;;;16.07;12.23;;;8.30;99.90;;;;;;5031797;28;20968;-67
2021/11/03 07:26:28;;;;;;;15.50;12.50;;;8.30;99.90;;;;;;5027750;28;20212;-67
2021/11/03 07:28:55;;;;;;;18.03;12.80;;;8.30;99.90;;;;;;5026872;28;20607;-68
2021/11/03 07:31:21;;;;;;;15.57;12.67;;;8.30;99.90;;;;;;5027314;28;20662;-67
2021/11/03 07:33:49;;;;;;;15.70;12.30;;;8.30;99.90;;;;;;5028538;28;20623;-67
2021/11/03 07:36:20;;;;;;;16.10;12.57;;;8.30;99.90;;;;;;5028372;28;20330;-67
2021/11/03 07:38:48;;;;;;;17.57;12.60;;;8.30;99.90;;;;;;5025682;28;21080;-67
2021/11/03 07:41:19;;;;;;;16.50;12.57;;;8.30;99.90;;;;;;5026081;28;20647;-68
2021/11/03 07:43:49;;;;;;;16.93;13.40;;;8.20;99.90;;;;;;5028533;28;20629;-69
2021/11/03 07:46:18;;;;;;;16.13;13.33;;;8.30;99.90;;;;;;5027555;28;20707;-67
2021/11/03 07:48:46;;;;;;;17.53;13.37;;;8.30;99.90;;;;;;5028301;28;20764;-68
2021/11/03 07:51:14;;;;;;;18.63;12.90;;;8.30;99.90;;;;;;5027253;28;20641;-68
2021/11/03 07:53:48;;;;;;;18.17;14.47;;;8.20;99.90;;;;;;5027876;28;20634;-69
2021/11/03 07:56:19;;;;;;;22.10;14.50;;;8.20;99.90;;;;;;5026717;28;21212;-70
2021/11/03 07:58:45;;;;;;;20.20;13.73;;;8.20;99.90;;;;;;5027497;28;20599;-69
2021/11/03 08:01:11;;;;;;;20.50;14.33;;;8.20;99.90;;;;;;5025497;28;21186;-69
2021/11/03 08:03:37;;;;;;;17.93;13.77;;;8.20;99.90;;;;;;5025203;28;20757;-70
2021/11/03 08:06:04;;;;;;;21.43;14.53;;;8.20;99.90;;;;;;5026458;28;20181;-70
2021/11/03 08:08:32;;;;;;;19.17;13.93;;;8.20;99.90;;;;;;5026146;28;20643;-71
2021/11/03 08:10:58;;;;;;;19.77;14.40;;;8.20;99.90;;;;;;5024885;28;21035;-69
2021/11/03 08:13:30;;;;;;;21.37;16.00;;;8.20;99.90;;;;;;5026584;28;20643;-71
2021/11/03 08:16:03;;;;;;;21.17;15.10;;;8.20;99.90;;;;;;5027234;28;20276;-70
2021/11/03 08:18:32;;;;;;;20.37;15.40;;;8.30;99.90;;;;;;5026050;28;20711;-70
2021/11/03 08:21:00;;;;;;;20.87;15.70;;;8.20;99.90;;;;;;5027019;28;20623;-70
2021/11/03 08:23:26;;;;;;;19.70;16.03;;;8.30;99.90;;;;;;5025497;28;20643;-70
2021/11/03 08:25:53;;;;;;;21.30;15.60;;;8.30;99.90;;;;;;5027700;28;21035;-69
2021/11/03 08:28:19;;;;;;;21.97;16.30;;;8.40;99.90;;;;;;5026536;28;20615;-70
2021/11/03 08:30:52;;;;;;;21.20;15.20;;;8.30;99.90;;;;;;5024286;28;20746;-70
2021/11/03 08:33:28;;;;;;;22.13;15.20;;;8.30;99.90;;;;;;5026989;28;20270;-71
2021/11/03 08:36:05;;;;;;;27.83;16.80;;;8.40;99.90;;;;;;5027850;28;20613;-72
2021/11/03 08:38:35;;;;;;;25.30;16.30;;;8.40;99.90;;;;;;5018393;28;20684;-70
2021/11/03 08:41:02;;;;;;;24.87;16.03;;;8.40;99.90;;;;;;5026564;28;21319;-70
2021/11/03 08:43:27;;;;;;;22.70;16.90;;;8.50;99.90;;;;;;5025190;28;20729;-69
2021/11/03 08:45:55;;;;;;;21.70;16.80;;;8.50;99.90;;;;;;5029686;28;20702;-70
2021/11/03 08:48:24;;;;;;;27.47;16.53;;;8.60;99.90;;;;;;5026217;28;20607;-70
2021/11/03 08:50:51;;;;;;;23.87;18.07;;;8.60;99.90;;;;;;5025347;28;20628;-70
2021/11/03 08:53:18;;;;;;;27.80;18.70;;;8.70;99.90;;;;;;5026664;28;21022;-70
2021/11/03 08:55:45;;;;;;;26.77;17.47;;;8.60;99.90;;;;;;5026320;28;20687;-70
2021/11/03 08:58:17;;;;;;;27.00;18.43;;;8.60;99.90;;;;;;5008442;28;20961;-71
2021/11/03 09:00:48;;;;;;;28.67;18.80;;;8.70;99.90;;;;;;5026492;28;20619;-71
2021/11/03 09:03:14;;;;;;;31.87;19.53;;;8.70;99.90;;;;;;5027473;28;20764;-70
2021/11/03 09:05:43;;;;;;;33.10;20.17;;;8.80;99.90;;;;;;5023553;28;20666;-70
2021/11/03 09:08:17;;;;;;;31.63;21.00;;;8.80;99.90;;;;;;5026530;28;20603;-71
2021/11/03 09:10:55;;;;;;;32.63;21.20;;;8.80;99.90;;;;;;5024075;28;20733;-70
2021/11/03 09:13:26;;;;;;;31.90;20.47;;;8.90;99.90;;;;;;5024305;28;20650;-70
2021/11/03 09:16:02;;;;;;;35.73;21.20;;;9.00;99.90;;;;;;5027361;28;20607;-70
2021/11/03 09:18:36;;;;;;;33.50;21.00;;;9.00;99.90;;;;;;5026428;28;20618;-70
2021/11/03 09:21:04;;;;;;;35.33;20.90;;;9.00;99.90;;;;;;5025544;28;20754;-71
2021/11/03 09:23:32;;;;;;;36.57;22.27;;;9.00;99.90;;;;;;5024453;28;20734;-69
2021/11/03 09:26:01;;;;;;;35.17;20.00;;;8.90;99.90;;;;;;5026844;28;20730;-69
2021/11/03 09:28:34;;;;;;;38.07;21.33;;;8.90;99.90;;;;;;5026192;28;21079;-69
2021/11/03 09:31:05;;;;;;;35.27;21.27;;;8.90;99.90;;;;;;5023311;28;20729;-69
2021/11/03 09:33:36;;;;;;;36.73;22.13;;;8.90;99.90;;;;;;5026574;28;20639;-72
2021/11/03 09:36:09;;;;;;;35.20;21.93;;;8.90;99.90;;;;;;5026894;28;21213;-70
2021/11/03 09:38:38;;;;;;;29.10;19.20;;;8.90;99.90;;;;;;5026229;28;21248;-70
2021/11/03 09:41:22;;;;;;;28.53;18.70;;;8.90;99.90;;;;;;5023244;28;20731;-70
2021/11/03 09:44:26;;;;;;;32.90;19.60;;;9.00;99.90;;;;;;5026455;28;20643;-70
2021/11/03 09:46:59;;;;;;;29.27;19.10;;;9.00;99.90;;;;;;5026670;28;20603;-70
2021/11/03 09:49:41;;;;;;;25.90;17.70;;;9.00;99.90;;;;;;5023118;28;20641;-71
2021/11/03 09:52:26;;;;;;;27.33;18.10;;;9.00;99.90;;;;;;5025470;28;20662;-69
2021/11/03 09:54:59;;;;;;;26.43;18.10;;;9.10;99.90;;;;;;5024825;28;20962;-69
2021/11/03 09:57:52;;;;;;;28.57;17.70;;;8.90;99.90;;;;;;5026583;28;21028;-68
2021/11/03 10:00:45;;;;;;;28.60;18.33;;;9.00;99.90;;;;;;5026336;28;20608;-69
2021/11/03 10:03:25;;;;;;;32.47;18.77;;;9.10;99.90;;;;;;5025081;28;20639;-68
2021/11/03 10:06:09;;;;;;;28.70;18.40;;;9.10;99.90;;;;;;5024116;28;20648;-70
2021/11/03 10:08:43;;;;;;;28.10;18.53;;;9.10;99.90;;;;;;5025843;28;21163;-70
2021/11/03 10:11:20;;;;;;;30.70;19.20;;;9.20;99.90;;;;;;5024394;28;20778;-71
2021/11/03 10:13:50;;;;;;;33.23;19.70;;;9.20;99.90;;;;;;5024525;28;20638;-69
2021/11/03 10:16:18;;;;;;;28.47;19.47;;;9.10;99.90;;;;;;5025174;28;20583;-69
2021/11/03 10:19:14;;;;;;;31.87;19.83;;;9.20;99.90;;;;;;5023962;28;20618;-69
2021/11/03 10:21:48;;;;;;;29.77;19.07;;;9.10;99.90;;;;;;5023043;28;20628;-69
2021/11/03 10:24:14;;;;;;;29.90;19.00;;;9.20;99.90;;;;;;5024879;28;21127;-69
2021/11/03 10:26:55;;;;;;;26.50;17.30;;;9.20;99.90;;;;;;5025264;28;20591;-68
2021/11/03 10:29:35;;;;;;;25.30;17.37;;;9.30;99.90;;;;;;5025637;28;21238;-69
2021/11/03 10:32:16;;;;;;;25.50;17.33;;;9.30;99.90;;;;;;5021925;28;20662;-70
2021/11/03 10:34:49;;;;;;;26.10;16.83;;;9.30;99.90;;;;;;5024544;28;21196;-70
2021/11/03 10:37:45;;;;;;;26.63;16.70;;;9.50;99.90;;;;;;5026155;28;20627;-69
2021/11/03 10:40:19;;;;;;;28.17;18.07;;;9.60;99.90;;;;;;5021896;28;21039;-70
2021/11/03 10:42:50;;;;;;;31.60;18.73;;;9.60;99.90;;;;;;5025206;28;20959;-71
2021/11/03 10:45:19;;;;;;;29.30;18.37;;;9.80;99.90;;;;;;5026274;28;20564;-70
2021/11/03 10:47:51;;;;;;;25.47;18.80;;;9.90;99.90;;;;;;5024471;28;20651;-70
2021/11/03 10:50:49;;;;;;;28.87;18.57;;;10.10;99.90;;;;;;5024706;28;20619;-71
2021/11/03 10:53:30;;;;;;;23.87;17.50;;;10.30;99.90;;;;;;5025509;28;20635;-70
2021/11/03 10:56:17;;;;;;;29.10;17.83;;;10.40;99.90;;;;;;5024869;28;20575;-70
2021/11/03 10:58:54;;;;;;;26.00;19.00;;;10.40;99.90;;;;;;5026689;28;20918;-71
2021/11/03 11:01:33;;;;;;;27.93;19.60;;;10.50;99.90;;;;;;5027799;28;21182;-70
2021/11/03 11:04:06;;;;;;;23.60;17.20;;;10.70;99.90;;;;;;5029522;28;20667;-71
2021/11/03 11:06:41;;;;;;;26.87;18.13;;;10.90;99.90;;;;;;5026329;28;20995;-70
2021/11/03 11:09:11;;;;;;;23.50;16.00;;;11.10;99.90;;;;;;5027597;28;20614;-69
2021/11/03 11:11:49;;;;;;;24.73;16.23;;;11.30;99.90;;;;;;5028303;28;20696;-69
2021/11/03 11:14:26;;;;;;;22.20;14.87;;;11.50;99.90;;;;;;5029669;28;21221;-68
2021/11/03 11:17:17;;;;;;;21.77;16.27;;;11.60;99.90;;;;;;5029257;28;20670;-70
2021/11/03 11:20:30;;;;;;;21.67;15.53;;;11.70;99.90;;;;;;5027700;28;20587;-66
2021/11/03 11:23:19;;;;;;;23.37;15.83;;;11.80;99.90;;;;;;4990601;28;20724;-70
2021/11/03 11:26:22;;;;;;;22.77;16.50;;;12.10;99.90;;;;;;5027123;28;21239;-68
2021/11/03 11:29:12;;;;;;;;;;;;;;;;;;;;;
2021/11/03 11:32:02;;;;;;;21.60;16.67;;;12.50;99.90;;;;;;5027821;28;20756;-69
2021/11/03 11:34:50;;;;;;;23.00;17.17;;;13.00;99.90;;;;;;5010510;28;20623;-69
2021/11/03 11:37:55;;;;;;;21.33;15.33;;;13.70;99.90;;;;;;5029365;28;20788;-68
2021/11/03 11:40:53;;;;;;;20.97;16.40;;;13.90;99.90;;;;;;5023703;28;20642;-69
2021/11/03 11:43:38;;;;;;;19.57;15.37;;;14.00;99.90;;;;;;5027037;28;20756;-69
2021/11/03 11:46:15;;;;;;;20.87;15.43;;;13.90;99.90;;;;;;5029583;28;21216;-69
2021/11/03 11:48:43;;;;;;;20.93;16.10;;;14.20;99.90;;;;;;5030365;28;20575;-69
2021/11/03 11:51:29;;;;;;;20.87;15.87;;;14.10;99.90;;;;;;5025983;28;20770;-70
2021/11/03 11:53:55;;;;;;;19.43;15.63;;;13.90;99.90;;;;;;5029558;28;20658;-70
2021/11/03 11:56:24;;;;;;;21.47;15.20;;;13.40;99.90;;;;;;5027776;28;20615;-69
2021/11/03 11:59:21;;;;;;;17.63;14.73;;;13.30;99.90;;;;;;5029751;28;20611;-70
2021/11/03 12:01:46;;;;;;;18.30;14.57;;;12.90;99.90;;;;;;5026726;28;20635;-70
2021/11/03 12:04:28;;;;;;;18.60;13.10;;;12.70;99.90;;;;;;5031052;28;20645;-69
2021/11/03 12:06:54;;;;;;;21.80;14.23;;;12.50;99.90;;;;;;5012189;28;20607;-71
2021/11/03 12:09:41;;;;;;;16.57;13.80;;;12.30;99.90;;;;;;5026602;28;20627;-70
2021/11/03 12:12:12;;;;;;;16.73;13.67;;;12.20;99.90;;;;;;5026780;28;20750;-70
2021/11/03 12:14:50;;;;;;;16.73;12.60;;;12.10;99.90;;;;;;5030786;28;20610;-69
2021/11/03 12:17:40;;;;;;;16.97;13.23;;;12.00;99.90;;;;;;5010287;28;21302;-71
2021/11/03 12:20:24;;;;;;;17.07;13.70;;;12.00;99.90;;;;;;5029525;28;20610;-69
2021/11/03 12:22:59;;;;;;;14.83;12.27;;;12.00;99.90;;;;;;5029889;28;21736;-68
2021/11/03 12:25:28;;;;;;;17.27;13.30;;;11.90;99.90;;;;;;5026890;28;20619;-69
2021/11/03 12:28:18;;;;;;;17.87;13.30;;;12.00;99.90;;;;;;5028156;28;20637;-69
2021/11/03 12:31:05;;;;;;;14.90;12.30;;;12.20;99.90;;;;;;5020263;28;20654;-69
2021/11/03 12:34:12;;;;;;;;;;;;;;;;;;;;;
2021/11/03 12:37:08;;;;;;;16.20;12.70;;;12.50;99.90;;;;;;5023247;28;20658;-68
2021/11/03 12:39:45;;;;;;;16.43;13.27;;;12.50;99.90;;;;;;5025858;28;20614;-71
2021/11/03 12:42:31;;;;;;;17.23;13.00;;;12.40;99.90;;;;;;5017855;28;21266;-69
2021/11/03 12:45:18;;;;;;;16.07;13.63;;;12.40;99.90;;;;;;5027654;28;20603;-69
2021/11/03 12:47:56;;;;;;;19.07;14.80;;;12.30;99.90;;;;;;5029066;28;20647;-68
2021/11/03 12:50:44;;;;;;;16.93;13.80;;;12.70;99.90;;;;;;5017878;28;20640;-70
2021/11/03 12:53:24;;;;;;;18.17;13.70;;;13.10;99.90;;;;;;5027802;28;20671;-69
2021/11/03 12:56:07;;;;;;;16.83;14.40;;;13.40;99.90;;;;;;5021664;28;20765;-70
2021/11/03 12:58:39;;;;;;;17.47;12.43;;;13.80;99.90;;;;;;5026611;28;20576;-69
2021/11/03 13:01:26;;;;;;;17.67;13.50;;;14.10;99.90;;;;;;5024960;28;20635;-69
2021/11/03 13:04:02;;;;;;;17.50;13.23;;;14.10;99.90;;;;;;5025743;28;20979;-70
2021/11/03 13:06:38;;;;;;;20.80;15.60;;;14.20;99.90;;;;;;5026688;28;21034;-70
2021/11/03 13:09:28;;;;;;;17.33;13.97;;;14.20;99.90;;;;;;5022425;28;20731;-70